createdAt,value
2018-08-17T00:01:30.101Z,5.57
2018-08-17T00:07:02.060Z,4.97
2018-08-17T00:09:34.074Z,4.63
2018-08-17T00:12:06.095Z,5.33
2018-08-17T00:14:38.087Z,4.70
2018-08-17T00:17:10.077Z,4.77
2018-08-17T00:19:42.059Z,5.30
2018-08-17T00:22:14.076Z,4.70
2018-08-17T00:24:46.066Z,5.30
2018-08-17T00:27:18.046Z,4.60
2018-08-17T00:29:50.159Z,5.70
2018-08-17T00:32:22.132Z,5.90
2018-08-17T00:34:54.207Z,5.90
2018-08-17T00:37:26.159Z,5.57
2018-08-17T00:39:58.148Z,5.83
2018-08-17T00:42:30.133Z,7.63
2018-08-17T00:45:02.141Z,5.07
2018-08-17T00:47:34.124Z,5.30
2018-08-17T00:50:06.144Z,5.80
2018-08-17T00:52:38.116Z,5.53
2018-08-17T00:55:10.125Z,5.50
2018-08-17T00:57:42.250Z,5.47
2018-08-17T01:00:14.260Z,5.87
2018-08-17T01:02:46.239Z,5.07
2018-08-17T01:05:18.355Z,6.47
2018-08-17T01:07:50.356Z,5.30
2018-08-17T01:10:22.348Z,5.83
2018-08-17T01:12:56.427Z,5.97
2018-08-17T01:15:28.409Z,6.10
2018-08-17T01:18:00.395Z,6.60
2018-08-17T01:20:32.399Z,5.60
2018-08-17T01:23:04.442Z,5.90
2018-08-17T01:25:36.887Z,6.47
2018-08-17T01:28:09.551Z,6.77
2018-08-17T01:30:41.571Z,6.30
2018-08-17T01:33:13.558Z,6.53
2018-08-17T01:35:45.550Z,5.40
2018-08-17T01:38:17.542Z,6.00
2018-08-17T01:40:49.538Z,5.80
2018-08-17T01:43:28.354Z,6.00
2018-08-17T01:46:00.361Z,6.03
2018-08-17T01:48:32.371Z,5.90
2018-08-17T01:51:04.363Z,5.90
2018-08-17T01:53:36.321Z,6.00
2018-08-17T01:56:08.371Z,6.10
2018-08-17T01:58:40.363Z,6.00
2018-08-17T02:01:12.391Z,5.70
2018-08-17T02:03:44.403Z,6.53
2018-08-17T02:06:16.429Z,6.33
2018-08-17T02:08:48.420Z,6.37
2018-08-17T02:11:20.425Z,5.93
2018-08-17T02:13:52.420Z,7.00
2018-08-17T02:16:24.448Z,6.40
2018-08-17T02:18:56.440Z,5.63
2018-08-17T02:21:28.447Z,6.77
2018-08-17T02:24:03.584Z,6.13
2018-08-17T02:26:35.579Z,6.37
2018-08-17T02:29:07.598Z,6.97
2018-08-17T02:31:39.588Z,6.30
2018-08-17T02:34:11.589Z,6.27
2018-08-17T02:36:43.579Z,7.37
2018-08-17T02:39:15.593Z,6.17
2018-08-17T02:41:47.607Z,9.80
2018-08-17T02:44:19.599Z,7.30
2018-08-17T02:46:51.598Z,7.00
2018-08-17T02:49:25.679Z,6.87
2018-08-17T02:51:57.695Z,7.40
2018-08-17T02:54:29.667Z,6.90
2018-08-17T02:57:08.332Z,6.73
2018-08-17T02:59:40.367Z,13.00
2018-08-17T03:02:12.348Z,6.67
2018-08-17T03:04:51.003Z,6.33
2018-08-17T03:07:23.015Z,6.23
2018-08-17T03:09:54.984Z,7.07
2018-08-17T03:12:27.000Z,7.07
2018-08-17T03:14:59.016Z,6.77
2018-08-17T03:17:31.025Z,6.70
2018-08-17T03:20:03.483Z,6.23
2018-08-17T03:22:35.468Z,6.87
2018-08-17T03:25:07.493Z,6.97
2018-08-17T03:27:39.487Z,6.80
2018-08-17T03:30:11.447Z,7.30
2018-08-17T03:32:43.415Z,7.43
2018-08-17T03:35:15.402Z,6.90
2018-08-17T03:37:47.375Z,6.70
2018-08-17T03:40:19.351Z,6.57
2018-08-17T03:42:51.310Z,8.20
2018-08-17T03:45:23.358Z,7.30
2018-08-17T03:47:55.310Z,7.73
2018-08-17T03:50:27.274Z,7.40
2018-08-17T03:52:59.318Z,7.70
2018-08-17T03:55:31.298Z,7.80
2018-08-17T03:58:03.304Z,7.50
2018-08-17T04:00:35.275Z,8.43
2018-08-17T04:03:07.478Z,8.60
2018-08-17T04:05:39.470Z,7.47
2018-08-17T04:08:11.470Z,8.83
2018-08-17T04:10:43.487Z,7.50
2018-08-17T04:13:15.427Z,7.43
2018-08-17T04:15:47.382Z,8.17
2018-08-17T04:18:19.430Z,7.77
2018-08-17T04:20:51.400Z,7.37
2018-08-17T04:23:25.469Z,6.90
2018-08-17T04:25:57.442Z,7.10
2018-08-17T04:28:29.475Z,7.90
2018-08-17T04:31:01.471Z,7.37
2018-08-17T04:33:33.477Z,7.40
2018-08-17T04:36:05.478Z,7.57
2018-08-17T04:38:37.480Z,7.13
2018-08-17T04:41:09.642Z,6.50
2018-08-17T04:43:41.675Z,6.60
2018-08-17T04:46:13.628Z,7.47
2018-08-17T04:48:45.611Z,6.90
2018-08-17T04:51:17.599Z,6.50
2018-08-17T04:53:49.630Z,7.20
2018-08-17T04:56:21.634Z,6.83
2018-08-17T04:59:07.402Z,7.07
2018-08-17T05:01:39.399Z,7.00
2018-08-17T05:04:11.404Z,8.83
2018-08-17T05:06:43.412Z,7.27
2018-08-17T05:09:15.406Z,7.50
2018-08-17T05:11:47.401Z,6.50
2018-08-17T05:14:21.417Z,7.20
2018-08-17T05:16:53.410Z,6.70
2018-08-17T05:19:25.411Z,6.93
2018-08-17T05:21:57.412Z,7.70
2018-08-17T05:24:29.388Z,7.47
2018-08-17T05:27:01.367Z,7.80
2018-08-17T05:29:33.412Z,7.30
2018-08-17T05:32:05.745Z,6.90
2018-08-17T05:34:37.728Z,6.40
2018-08-17T05:37:09.782Z,6.10
2018-08-17T05:39:41.830Z,6.10
2018-08-17T05:44:52.553Z,5.60
2018-08-17T05:47:24.564Z,6.20
2018-08-17T05:49:56.567Z,6.00
2018-08-17T05:52:28.535Z,6.80
2018-08-17T05:55:00.522Z,5.53
2018-08-17T05:57:32.821Z,7.27
2018-08-17T06:00:06.659Z,5.40
2018-08-17T06:02:38.723Z,6.50
2018-08-17T06:05:10.782Z,6.60
2018-08-17T06:07:42.728Z,6.10
2018-08-17T06:10:14.754Z,6.60
2018-08-17T06:12:46.746Z,5.53
2018-08-17T06:15:18.798Z,5.40
2018-08-17T06:17:50.818Z,5.30
2018-08-17T06:20:22.815Z,5.70
2018-08-17T06:22:54.865Z,5.43
2018-08-17T06:25:26.898Z,6.47
2018-08-17T06:27:58.896Z,5.30
2018-08-17T06:30:31.000Z,5.20
2018-08-17T06:33:03.065Z,5.20
2018-08-17T06:35:35.123Z,5.97
2018-08-17T06:38:07.150Z,5.40
2018-08-17T06:40:39.171Z,4.60
2018-08-17T06:43:11.148Z,5.53
2018-08-17T06:45:43.237Z,5.17
2018-08-17T06:48:15.370Z,5.33
2018-08-17T06:50:47.449Z,8.60
2018-08-17T06:53:19.399Z,5.63
2018-08-17T06:55:51.415Z,5.40
2018-08-17T06:58:23.446Z,5.10
2018-08-17T07:00:55.492Z,5.80
2018-08-17T07:03:27.509Z,5.80
2018-08-17T07:05:59.579Z,4.80
2018-08-17T07:08:31.593Z,7.10
2018-08-17T07:11:03.660Z,4.80
2018-08-17T07:13:35.662Z,6.40
2018-08-17T07:16:07.705Z,5.20
2018-08-17T07:18:39.723Z,6.10
2018-08-17T07:21:11.728Z,8.13
2018-08-17T07:23:43.709Z,4.53
2018-08-17T07:26:15.696Z,4.80
2018-08-17T07:28:47.688Z,4.50
2018-08-17T07:31:19.677Z,4.87
2018-08-17T07:33:51.941Z,6.73
2018-08-17T07:36:23.958Z,4.40
2018-08-17T07:38:55.959Z,4.53
2018-08-17T07:41:27.934Z,4.20
2018-08-17T07:43:59.950Z,4.20
2018-08-17T07:46:31.962Z,4.90
2018-08-17T07:49:03.987Z,4.93
2018-08-17T07:51:36.044Z,4.27
2018-08-17T07:54:08.015Z,3.80
2018-08-17T07:56:40.047Z,3.87
2018-08-17T07:59:12.081Z,3.80
2018-08-17T08:01:44.071Z,3.63
2018-08-17T08:04:16.054Z,3.17
2018-08-17T08:06:48.099Z,3.67
2018-08-17T08:09:20.106Z,3.20
2018-08-17T08:11:52.070Z,3.63
2018-08-17T08:14:24.067Z,3.03
2018-08-17T08:16:56.151Z,3.73
2018-08-17T08:19:28.144Z,3.30
2018-08-17T08:22:00.171Z,6.67
2018-08-17T08:24:36.254Z,3.03
2018-08-17T08:27:08.339Z,3.77
2018-08-17T08:29:40.407Z,2.70
2018-08-17T08:32:12.433Z,3.20
2018-08-17T08:34:44.482Z,3.00
2018-08-17T08:37:16.466Z,4.13
2018-08-17T08:39:48.497Z,2.47
2018-08-17T08:43:23.862Z,3.10
2018-08-17T08:45:55.938Z,2.40
2018-08-17T08:48:27.898Z,2.47
2018-08-17T08:50:59.959Z,2.73
2018-08-17T08:53:31.978Z,4.30
2018-08-17T08:56:04.026Z,3.20
2018-08-17T08:58:36.068Z,2.70
2018-08-17T09:01:08.360Z,2.70
2018-08-17T09:03:40.347Z,2.87
2018-08-17T09:06:12.371Z,2.40
2018-08-17T09:08:44.666Z,2.43
2018-08-17T09:11:16.679Z,2.37
2018-08-17T09:13:48.720Z,3.87
2018-08-17T09:16:21.068Z,2.30
2018-08-17T09:18:53.099Z,4.00
2018-08-17T09:21:25.086Z,3.93
2018-08-17T09:23:57.100Z,3.07
2018-08-17T09:26:29.296Z,4.20
2018-08-17T09:29:01.247Z,3.70
2018-08-17T09:31:33.259Z,3.10
2018-08-17T09:34:05.226Z,3.10
2018-08-17T09:36:37.187Z,3.03
2018-08-17T09:39:09.649Z,3.60
2018-08-17T09:41:41.713Z,2.70
2018-08-17T09:44:13.642Z,2.23
2018-08-17T09:46:45.645Z,3.07
2018-08-17T09:49:17.631Z,2.60
2018-08-17T09:51:49.574Z,2.70
2018-08-17T09:54:21.549Z,2.83
2018-08-17T09:56:53.555Z,4.90
2018-08-17T09:59:25.588Z,4.00
2018-08-17T10:03:01.736Z,2.80
2018-08-17T10:05:42.084Z,3.27
2018-08-17T10:08:20.184Z,3.30
2018-08-17T10:10:52.141Z,3.10
2018-08-17T10:13:24.146Z,4.40
2018-08-17T10:15:56.112Z,2.60
2018-08-17T10:18:34.686Z,2.60
2018-08-17T10:21:06.826Z,2.57
2018-08-17T10:23:38.805Z,3.03
2018-08-17T10:26:10.787Z,4.73
2018-08-17T10:28:42.772Z,2.60
2018-08-17T10:31:16.635Z,2.53
2018-08-17T10:33:48.808Z,2.50
2018-08-17T10:36:20.857Z,2.90
2018-08-17T10:38:52.902Z,2.63
2018-08-17T10:41:25.034Z,2.50
2018-08-17T10:43:57.200Z,2.13
2018-08-17T10:46:29.177Z,2.60
2018-08-17T10:49:01.357Z,2.50
2018-08-17T10:51:33.236Z,4.80
2018-08-17T10:54:05.317Z,2.70
2018-08-17T10:56:37.330Z,2.47
2018-08-17T10:59:09.321Z,2.63
2018-08-17T11:01:42.243Z,2.93
2018-08-17T11:04:14.294Z,4.33
2018-08-17T11:06:46.360Z,2.90
2018-08-17T11:09:18.406Z,2.37
2018-08-17T11:11:50.395Z,2.50
2018-08-17T11:14:23.047Z,3.03
2018-08-17T11:16:55.063Z,2.37
2018-08-17T11:19:27.075Z,2.73
2018-08-17T11:21:59.084Z,2.40
2018-08-17T11:24:31.900Z,2.87
2018-08-17T11:27:03.925Z,2.70
2018-08-17T11:29:35.943Z,3.63
2018-08-17T11:32:08.068Z,3.10
2018-08-17T11:34:40.060Z,3.37
2018-08-17T11:37:12.047Z,2.30
2018-08-17T11:39:48.639Z,2.60
2018-08-17T11:42:20.644Z,3.70
2018-08-17T11:44:52.662Z,3.57
2018-08-17T11:47:24.719Z,2.60
2018-08-17T11:49:57.142Z,2.80
2018-08-17T11:52:31.387Z,2.60
2018-08-17T11:55:03.394Z,3.37
2018-08-17T11:57:35.414Z,2.00
2018-08-17T12:00:07.526Z,2.10
2018-08-17T12:02:39.560Z,2.03
2018-08-17T12:05:11.698Z,3.30
2018-08-17T12:07:44.647Z,2.23
2018-08-17T12:10:18.007Z,2.17
2018-08-17T12:12:50.182Z,2.20
2018-08-17T12:15:22.698Z,2.13
2018-08-17T12:17:55.009Z,1.83
2018-08-17T12:20:27.382Z,2.60
2018-08-17T12:22:59.399Z,2.57
2018-08-17T12:25:32.684Z,2.17
2018-08-17T12:28:04.713Z,2.00
2018-08-17T12:30:36.706Z,2.80
2018-08-17T12:33:10.315Z,2.13
2018-08-17T12:35:42.320Z,2.40
2018-08-17T12:38:16.419Z,2.37
2018-08-17T12:40:51.037Z,1.90
2018-08-17T12:43:27.823Z,2.10
2018-08-17T12:45:59.843Z,2.23
2018-08-17T12:48:31.883Z,2.53
2018-08-17T12:51:05.098Z,1.80
2018-08-17T12:53:37.099Z,1.80
2018-08-17T12:56:09.100Z,2.50
2018-08-17T12:58:41.207Z,2.40
2018-08-17T13:01:13.227Z,3.10
2018-08-17T13:03:46.117Z,2.00
2018-08-17T13:06:18.240Z,2.33
2018-08-17T13:08:50.398Z,2.33
2018-08-17T13:11:22.367Z,2.17
2018-08-17T13:13:57.630Z,2.53
2018-08-17T13:16:29.635Z,3.50
2018-08-17T13:19:01.699Z,2.13
2018-08-17T13:21:33.810Z,3.00
2018-08-17T13:24:05.838Z,2.10
2018-08-17T13:26:37.903Z,2.53
2018-08-17T13:29:09.980Z,2.30
2018-08-17T13:31:41.983Z,2.27
2018-08-17T13:34:14.015Z,3.43
2018-08-17T13:36:46.071Z,2.17
2018-08-17T13:39:18.088Z,2.30
2018-08-17T13:41:50.186Z,2.50
2018-08-17T13:44:22.169Z,2.50
2018-08-17T13:46:54.200Z,2.30
2018-08-17T13:49:26.176Z,3.57
2018-08-17T13:51:58.166Z,2.30
2018-08-17T13:54:36.861Z,2.47
2018-08-17T13:57:08.865Z,2.53
2018-08-17T13:59:40.887Z,2.30
2018-08-17T14:02:12.946Z,2.50
2018-08-17T14:04:44.951Z,2.60
2018-08-17T14:07:17.000Z,2.10
2018-08-17T14:09:48.998Z,2.27
2018-08-17T14:12:20.997Z,2.20
2018-08-17T14:14:53.023Z,2.73
2018-08-17T14:17:24.998Z,2.40
2018-08-17T14:19:57.009Z,4.47
2018-08-17T14:22:28.986Z,2.10
2018-08-17T14:25:01.029Z,2.73
2018-08-17T14:27:33.051Z,2.27
2018-08-17T14:30:11.611Z,4.23
2018-08-17T14:32:43.758Z,2.70
2018-08-17T14:35:15.842Z,2.40
2018-08-17T14:37:47.772Z,2.80
2018-08-17T14:40:19.872Z,2.13
2018-08-17T14:42:51.863Z,2.20
2018-08-17T14:45:23.874Z,3.73
2018-08-17T14:47:55.932Z,2.10
2018-08-17T14:50:27.985Z,2.10
2018-08-17T14:53:00.008Z,2.47
2018-08-17T14:55:32.006Z,2.33
2018-08-17T14:58:04.074Z,3.33
2018-08-17T15:00:36.059Z,2.30
2018-08-17T15:03:08.120Z,2.60
2018-08-17T15:05:40.133Z,2.80
2018-08-17T15:08:12.144Z,2.30
2018-08-17T15:10:44.159Z,3.10
2018-08-17T15:13:16.179Z,1.93
2018-08-17T15:15:48.206Z,2.27
2018-08-17T15:18:21.029Z,2.00
2018-08-17T15:20:53.034Z,3.30
2018-08-17T15:23:25.047Z,3.63
2018-08-17T15:25:57.080Z,2.10
2018-08-17T15:28:29.104Z,1.90
2018-08-17T15:31:01.141Z,5.87
2018-08-17T15:33:33.140Z,2.00
2018-08-17T15:36:05.201Z,2.23
2018-08-17T15:38:37.184Z,2.33
2018-08-17T15:41:09.593Z,2.27
2018-08-17T15:43:41.604Z,3.43
2018-08-17T15:46:13.723Z,2.50
2018-08-17T15:48:52.207Z,2.20
2018-08-17T15:51:24.222Z,2.40
2018-08-17T15:53:56.440Z,2.13
2018-08-17T15:56:28.499Z,2.40
2018-08-17T15:59:00.547Z,2.80
2018-08-17T16:01:32.686Z,2.50
2018-08-17T16:04:04.622Z,2.30
2018-08-17T16:06:36.737Z,2.60
2018-08-17T16:09:10.279Z,2.30
2018-08-17T16:11:42.356Z,2.80
2018-08-17T16:14:14.406Z,2.63
2018-08-17T16:16:46.393Z,2.67
2018-08-17T16:19:18.476Z,2.83
2018-08-17T16:21:50.686Z,2.10
2018-08-17T16:24:22.700Z,2.70
2018-08-17T16:26:54.663Z,2.43
2018-08-17T16:29:26.816Z,2.47
2018-08-17T16:31:58.886Z,2.90
2018-08-17T16:34:30.856Z,2.93
2018-08-17T16:37:02.891Z,2.33
2018-08-17T16:39:40.311Z,3.30
2018-08-17T16:42:19.031Z,2.50
2018-08-17T16:44:51.069Z,2.83
2018-08-17T16:47:23.094Z,4.70
2018-08-17T16:49:55.277Z,3.00
2018-08-17T16:52:27.276Z,3.30
2018-08-17T16:54:59.311Z,2.70
2018-08-17T16:57:31.344Z,2.70
2018-08-17T17:00:04.698Z,2.80
2018-08-17T17:02:36.720Z,5.50
2018-08-17T17:05:08.775Z,4.53
2018-08-17T17:07:40.779Z,3.20
2018-08-17T17:10:12.764Z,2.93
2018-08-17T17:12:44.751Z,2.80
2018-08-17T17:15:19.951Z,4.20
2018-08-17T17:17:57.865Z,3.00
2018-08-17T17:20:33.682Z,2.50
2018-08-17T17:23:06.980Z,2.80
2018-08-17T17:25:39.265Z,6.23
2018-08-17T17:28:11.294Z,3.47
2018-08-17T17:30:49.212Z,3.10
2018-08-17T17:33:21.720Z,8.43
2018-08-17T17:35:53.796Z,5.20
2018-08-17T17:38:25.901Z,7.93
2018-08-17T17:40:58.962Z,4.03
2018-08-17T17:43:31.115Z,3.40
2018-08-17T17:46:03.224Z,3.83
2018-08-17T17:48:35.235Z,5.00
2018-08-17T17:51:07.258Z,4.40
2018-08-17T17:53:39.286Z,4.03
2018-08-17T17:56:11.341Z,4.17
2018-08-17T17:58:43.446Z,3.70
2018-08-17T18:01:15.471Z,3.50
2018-08-17T18:03:47.556Z,7.00
2018-08-17T18:06:19.659Z,3.13
2018-08-17T18:08:51.785Z,3.70
2018-08-17T18:11:24.027Z,3.67
2018-08-17T18:13:56.090Z,5.80
2018-08-17T18:16:28.150Z,8.20
2018-08-17T18:19:00.231Z,3.30
2018-08-17T18:21:33.071Z,3.87
2018-08-17T18:24:11.764Z,3.77
2018-08-17T18:26:49.094Z,3.60
2018-08-17T18:29:21.122Z,5.20
2018-08-17T18:31:53.163Z,3.40
2018-08-17T18:34:25.195Z,4.60
2018-08-17T18:36:57.228Z,5.37
2018-08-17T18:39:29.308Z,5.80
2018-08-17T18:42:01.317Z,5.10
2018-08-17T18:44:33.334Z,6.03
2018-08-17T18:47:05.306Z,5.40
2018-08-17T18:49:37.387Z,5.37
2018-08-17T18:52:09.383Z,6.93
2018-08-17T18:54:41.445Z,10.03
2018-08-17T18:57:13.494Z,8.20
2018-08-17T18:59:45.530Z,8.20
2018-08-17T19:02:17.542Z,7.53
2018-08-17T19:04:49.691Z,4.70
2018-08-17T19:07:21.701Z,6.93
2018-08-17T19:09:53.736Z,6.97
2018-08-17T19:12:25.722Z,5.77
2018-08-17T19:14:57.815Z,5.20
2018-08-17T19:17:33.123Z,5.60
2018-08-17T19:20:07.815Z,4.20
2018-08-17T19:22:45.197Z,4.63
2018-08-17T19:25:17.245Z,4.30
2018-08-17T19:27:49.266Z,4.57
2018-08-17T19:30:26.947Z,5.20
2018-08-17T19:33:03.274Z,5.00
2018-08-17T19:35:35.331Z,4.73
2018-08-17T19:38:07.367Z,4.50
2018-08-17T19:40:39.386Z,4.37
2018-08-17T19:43:11.431Z,4.20
2018-08-17T19:45:43.551Z,5.87
2018-08-17T19:48:15.567Z,7.33
2018-08-17T19:50:47.597Z,4.83
2018-08-17T19:53:19.654Z,4.60
2018-08-17T19:55:51.710Z,4.20
2018-08-17T19:58:23.825Z,4.77
2018-08-17T20:00:55.813Z,5.10
2018-08-17T20:03:27.810Z,4.80
2018-08-17T20:05:59.912Z,5.10
2018-08-17T20:08:31.981Z,4.90
2018-08-17T20:11:04.091Z,5.10
2018-08-17T20:13:36.119Z,5.50
2018-08-17T20:16:16.511Z,4.83
2018-08-17T20:18:48.833Z,4.43
2018-08-17T20:21:22.157Z,4.83
2018-08-17T20:23:54.247Z,5.90
2018-08-17T20:26:26.552Z,5.17
2018-08-17T20:28:58.321Z,5.20
2018-08-17T20:31:30.435Z,4.87
2018-08-17T20:35:05.779Z,5.73
2018-08-17T20:37:47.128Z,4.80
2018-08-17T20:40:19.532Z,13.23
2018-08-17T20:42:51.586Z,5.03
2018-08-17T20:45:25.632Z,5.43
2018-08-17T20:47:57.680Z,6.20
2018-08-17T20:50:29.696Z,4.37
2018-08-17T20:53:01.715Z,4.07
2018-08-17T20:55:33.720Z,4.33
2018-08-17T20:58:05.806Z,8.90
2018-08-17T21:00:37.886Z,4.93
2018-08-17T21:03:09.819Z,5.20
2018-08-17T21:05:41.810Z,4.70
2018-08-17T21:08:13.816Z,4.83
2018-08-17T21:10:45.840Z,4.90
2018-08-17T21:13:17.846Z,4.60
2018-08-17T21:15:49.854Z,4.63
2018-08-17T21:18:21.856Z,7.70
2018-08-17T21:20:53.937Z,4.73
2018-08-17T21:23:25.935Z,4.17
2018-08-17T21:25:57.919Z,4.10
2018-08-17T21:28:30.361Z,5.73
2018-08-17T21:31:02.440Z,5.07
2018-08-17T21:33:35.037Z,4.17
2018-08-17T21:36:14.179Z,6.20
2018-08-17T21:39:01.037Z,5.00
2018-08-17T21:41:33.114Z,5.30
2018-08-17T21:44:06.938Z,4.50
2018-08-17T21:46:40.427Z,4.33
2018-08-17T21:49:12.430Z,4.57
2018-08-17T21:51:44.393Z,4.90
2018-08-17T21:54:18.255Z,4.20
2018-08-17T21:56:50.365Z,3.73
2018-08-17T21:59:22.312Z,5.20
2018-08-17T22:01:54.334Z,4.33
2018-08-17T22:04:26.331Z,4.07
2018-08-17T22:07:00.562Z,3.90
2018-08-17T22:09:39.686Z,4.33
2018-08-17T22:12:12.553Z,4.63
2018-08-17T22:14:46.275Z,3.87
2018-08-17T22:17:31.141Z,4.27
2018-08-17T22:20:04.089Z,4.70
2018-08-17T22:22:36.199Z,4.37
2018-08-17T22:25:12.334Z,5.30
2018-08-17T22:27:44.359Z,3.97
2018-08-17T22:30:20.228Z,4.17
2018-08-17T22:32:52.187Z,4.43
2018-08-17T22:35:24.303Z,4.17
2018-08-17T22:37:56.222Z,4.47
2018-08-17T22:40:28.620Z,4.40
2018-08-17T22:43:00.644Z,4.10
2018-08-17T22:45:32.699Z,4.47
2018-08-17T22:48:04.914Z,3.90
2018-08-17T22:50:36.873Z,4.43
2018-08-17T22:53:12.365Z,4.50
2018-08-17T22:55:44.506Z,4.03
2018-08-17T22:58:16.713Z,4.30
2018-08-17T23:00:48.707Z,4.50
2018-08-17T23:03:20.719Z,3.73
2018-08-17T23:05:52.803Z,4.40
2018-08-17T23:08:24.852Z,4.47
2018-08-17T23:10:56.880Z,3.70
2018-08-17T23:13:28.886Z,4.37
2018-08-17T23:16:00.928Z,4.30
2018-08-17T23:18:33.148Z,6.13
2018-08-17T23:21:05.159Z,4.97
2018-08-17T23:23:37.203Z,5.27
2018-08-17T23:26:09.272Z,5.57
2018-08-17T23:28:41.297Z,4.40
2018-08-17T23:31:13.326Z,4.73
2018-08-17T23:33:45.311Z,4.40
2018-08-17T23:36:17.391Z,4.70
2018-08-17T23:38:49.425Z,5.47
2018-08-17T23:41:21.510Z,5.30
2018-08-17T23:43:53.447Z,4.20
2018-08-17T23:46:25.479Z,5.03
2018-08-17T23:48:57.480Z,5.13
2018-08-17T23:51:29.634Z,4.90
2018-08-17T23:54:01.671Z,4.40
2018-08-17T23:56:33.728Z,5.20
2018-08-17T23:59:05.744Z,4.37
